Time Latitude Longitude Accuracy (66% radius in meters) Altitude (meters) Speed (km/hour) Bearing (degrees) Battery (%) GPS flag
06:54:05 57.205249 60.115384 0 0 0 0 1 delete
06:54:04 57.205243 60.115340 0 0 0 0 1 delete
06:54:03 57.205240 60.115290 0 0 0 0 1 delete
06:54:02 57.205236 60.115244 0 0 0 0 1 delete
06:54:01 57.205229 60.115198 0 0 0 0 1 delete
06:54:00 57.205223 60.115154 0 0 0 0 1 delete
06:53:59 57.205218 60.115110 0 0 0 0 1 delete
06:53:58 57.205216 60.115069 0 0 0 0 1 delete
06:53:57 57.205210 60.115031 0 0 0 0 1 delete
06:53:56 57.205208 60.114990 0 0 0 0 1 delete
06:53:55 57.205205 60.114949 0 0 0 0 1 delete
06:53:54 57.205204 60.114908 0 0 0 0 1 delete
06:53:53 57.205200 60.114866 0 0 0 0 1 delete
06:53:52 57.205195 60.114818 0 0 0 0 1 delete
06:53:51 57.205191 60.114769 0 0 0 0 1 delete
06:53:50 57.205189 60.114719 0 0 0 0 1 delete
06:53:49 57.205185 60.114673 0 0 0 0 1 delete
06:53:48 57.205179 60.114628 0 0 0 0 1 delete
06:53:47 57.205165 60.114598 0 0 0 0 1 delete
06:53:46 57.205147 60.114587 0 0 0 0 1 delete
06:53:45 57.205127 60.114597 0 0 0 0 1 delete
06:53:44 57.205111 60.114617 0 0 0 0 1 delete
06:53:43 57.205096 60.114633 0 0 0 0 1 delete
06:53:42 57.205081 60.114642 0 0 0 0 1 delete
06:53:41 57.205064 60.114642 0 0 0 0 1 delete
06:53:40 57.205049 60.114638 0 0 0 0 1 delete
06:53:39 57.205037 60.114633 0 0 0 0 1 delete
06:53:38 57.205031 60.114627 0 0 0 0 1 delete
06:53:37 57.205029 60.114621 0 0 0 0 1 delete
06:53:36 57.205025 60.114623 0 0 0 0 1 delete
06:53:35 57.205023 60.114629 0 0 0 0 1 delete
06:53:34 57.205029 60.114640 0 0 0 0 1 delete
06:53:33 57.205049 60.114647 0 0 0 0 1 delete
06:53:32 57.205079 60.114655 0 0 0 0 1 delete
06:53:31 57.205110 60.114653 0 0 0 0 1 delete
06:53:30 57.205137 60.114642 0 0 0 0 1 delete
06:53:29 57.205161 60.114620 0 0 0 0 1 delete
06:53:28 57.205183 60.114612 0 0 0 0 1 delete
06:53:27 57.205205 60.114628 0 0 0 0 1 delete
06:53:26 57.205222 60.114675 0 0 0 0 1 delete
06:53:25 57.205236 60.114746 0 0 0 0 1 delete
06:53:24 57.205252 60.114832 0 0 0 0 1 delete
06:53:23 57.205269 60.114922 0 0 0 0 1 delete
06:53:22 57.205287 60.115010 0 0 0 0 1 delete
06:53:21 57.205303 60.115095 0 0 0 0 1 delete
06:53:20 57.205319 60.115177 0 0 0 0 1 delete
06:53:19 57.205331 60.115249 0 0 0 0 1 delete
06:53:18 57.205341 60.115311 0 0 0 0 1 delete
06:53:17 57.205349 60.115365 0 0 0 0 1 delete
06:53:16 57.205361 60.115413 0 0 0 0 1 delete